Time;durP1;ratioP1;P1;durP2;ratioP2;P2;SDS_P1;SDS_P2;PMS_P1;PMS_P2;Temp;Humidity;BMP_temperature;BMP_pressure;BME280_temperature;BME280_humidity;BME280_pressure;Samples;Min_cycle;Max_cycle;Signal;HPM_P1;HPM_P2
2021/08/11 00:00:21;;;;;;;4.17;3.07;;;18.00;35.20;;;;;;4985141;28;20182;-68
2021/08/11 00:02:47;;;;;;;3.83;3.37;;;17.90;35.40;;;;;;4982753;28;20173;-67
2021/08/11 00:05:12;;;;;;;5.53;2.60;;;17.80;36.10;;;;;;4981830;28;20204;-68
2021/08/11 00:07:38;;;;;;;5.07;3.23;;;17.70;36.50;;;;;;4975999;28;20576;-68
2021/08/11 00:10:05;;;;;;;3.30;2.37;;;17.70;37.00;;;;;;4975845;28;20605;-68
2021/08/11 00:12:30;;;;;;;3.80;2.67;;;17.70;36.60;;;;;;4979630;28;20730;-68
2021/08/11 00:14:56;;;;;;;2.30;1.90;;;17.60;36.60;;;;;;4975865;28;20559;-68
2021/08/11 00:17:23;;;;;;;2.43;2.13;;;17.60;37.40;;;;;;4975082;28;20734;-68
2021/08/11 00:19:49;;;;;;;3.70;2.70;;;17.60;37.30;;;;;;4974831;28;20204;-68
2021/08/11 00:22:15;;;;;;;2.73;2.53;;;17.60;37.40;;;;;;4975162;28;20472;-68
2021/08/11 00:24:41;;;;;;;7.40;2.77;;;17.60;37.70;;;;;;4974893;28;20474;-68
2021/08/11 00:27:06;;;;;;;4.47;2.87;;;17.60;37.70;;;;;;4975115;28;20231;-68
2021/08/11 00:29:32;;;;;;;3.03;2.73;;;17.60;37.70;;;;;;4974711;28;20416;-67
2021/08/11 00:31:57;;;;;;;4.50;2.73;;;17.60;37.70;;;;;;4974782;28;20836;-68
2021/08/11 00:34:23;;;;;;;8.60;3.47;;;17.50;37.70;;;;;;4975168;28;20297;-68
2021/08/11 00:36:48;;;;;;;5.87;3.27;;;17.50;38.40;;;;;;4974625;28;20169;-68
2021/08/11 00:39:14;;;;;;;3.57;2.40;;;17.50;37.70;;;;;;4974731;28;20180;-68
2021/08/11 00:41:46;;;;;;;5.47;2.60;;;17.50;37.70;;;;;;4975113;28;20173;-68
2021/08/11 00:44:14;;;;;;;3.40;2.70;;;17.50;37.60;;;;;;4974560;28;20217;-68
2021/08/11 00:46:45;;;;;;;3.07;2.33;;;17.50;37.90;;;;;;4974382;28;20520;-68
2021/08/11 00:49:15;;;;;;;5.57;2.70;;;17.50;38.50;;;;;;4974635;28;20401;-68
2021/08/11 00:51:42;;;;;;;4.20;2.83;;;17.50;38.10;;;;;;4974770;28;20907;-68
2021/08/11 00:54:09;;;;;;;4.33;3.10;;;17.50;37.60;;;;;;4974475;28;20468;-68
2021/08/11 00:56:37;;;;;;;2.30;2.10;;;17.50;38.00;;;;;;4973043;28;20415;-68
2021/08/11 00:59:04;;;;;;;2.77;2.13;;;17.50;38.70;;;;;;4974061;28;20413;-67
2021/08/11 01:01:32;;;;;;;2.80;2.50;;;17.50;38.20;;;;;;4973124;28;20413;-68
2021/08/11 01:03:59;;;;;;;3.83;3.03;;;17.50;37.90;;;;;;4973974;28;20444;-67
2021/08/11 01:06:26;;;;;;;5.07;2.40;;;17.40;37.70;;;;;;4974128;28;20496;-68
2021/08/11 01:08:54;;;;;;;7.00;2.50;;;17.40;38.00;;;;;;4973877;28;20425;-69
2021/08/11 01:11:21;;;;;;;3.00;2.40;;;17.30;38.40;;;;;;4974052;28;20500;-68
2021/08/11 01:13:47;;;;;;;6.23;2.73;;;17.30;38.90;;;;;;4973794;28;21136;-68
2021/08/11 01:16:13;;;;;;;2.83;2.17;;;17.30;39.20;;;;;;4973904;28;20408;-69
2021/08/11 01:18:38;;;;;;;5.67;2.50;;;17.30;39.20;;;;;;4973790;28;20421;-69
2021/08/11 01:21:29;;;;;;;3.80;2.80;;;17.20;39.50;;;;;;4973809;28;20251;-68
2021/08/11 01:24:07;;;;;;;6.70;2.57;;;17.20;39.30;;;;;;4974221;28;20625;-68
2021/08/11 01:26:55;;;;;;;4.30;2.50;;;17.10;39.80;;;;;;4974426;28;20427;-68
2021/08/11 01:29:31;;;;;;;4.23;2.87;;;17.10;40.20;;;;;;4973963;28;20915;-68
2021/08/11 01:32:02;;;;;;;7.30;2.37;;;17.00;39.40;;;;;;4974070;28;20420;-69
2021/08/11 01:34:45;;;;;;;3.37;3.00;;;16.90;39.20;;;;;;4974126;28;21017;-68
2021/08/11 01:37:22;;;;;;;5.10;2.80;;;16.80;39.50;;;;;;4973964;28;20413;-68
2021/08/11 01:39:50;;;;;;;4.40;2.90;;;16.80;39.80;;;;;;4973504;28;20409;-69
2021/08/11 01:42:23;;;;;;;3.03;2.73;;;16.70;40.20;;;;;;4973308;28;20444;-68
2021/08/11 01:44:53;;;;;;;5.37;3.17;;;16.60;40.30;;;;;;4973484;28;20430;-68
2021/08/11 01:47:29;;;;;;;5.40;3.33;;;16.60;40.50;;;;;;4973616;28;20412;-68
2021/08/11 01:49:55;;;;;;;4.70;3.27;;;16.60;41.60;;;;;;4973496;28;20490;-68
2021/08/11 01:52:21;;;;;;;3.17;2.70;;;16.60;40.90;;;;;;4973501;28;20420;-67
2021/08/11 01:54:48;;;;;;;4.00;2.90;;;16.60;40.90;;;;;;4973193;28;20217;-68
2021/08/11 01:57:14;;;;;;;7.30;2.87;;;16.60;41.10;;;;;;4971925;28;20189;-67
2021/08/11 01:59:42;;;;;;;4.07;3.10;;;16.50;41.70;;;;;;4972966;28;20782;-68
2021/08/11 02:02:11;;;;;;;6.87;3.13;;;16.40;42.00;;;;;;4973139;28;20417;-67
2021/08/11 02:04:37;;;;;;;5.47;3.27;;;16.40;42.40;;;;;;4972993;28;20503;-68
2021/08/11 02:07:03;;;;;;;3.40;2.50;;;16.40;42.50;;;;;;4973310;28;20420;-68
2021/08/11 02:09:29;;;;;;;8.40;3.07;;;16.50;42.00;;;;;;4972777;28;20182;-68
2021/08/11 02:11:55;;;;;;;6.60;3.30;;;16.50;42.00;;;;;;4973262;28;20416;-68
2021/08/11 02:14:22;;;;;;;3.70;3.00;;;16.60;42.10;;;;;;4972750;28;20476;-68
2021/08/11 02:16:48;;;;;;;4.27;3.17;;;16.60;42.00;;;;;;4972813;28;20431;-69
2021/08/11 02:19:13;;;;;;;6.87;3.00;;;16.60;41.30;;;;;;4972608;28;20417;-68
2021/08/11 02:21:40;;;;;;;3.03;2.60;;;16.60;41.70;;;;;;4972836;28;20256;-68
2021/08/11 02:24:08;;;;;;;7.03;4.00;;;16.60;41.40;;;;;;4972931;28;20209;-68
2021/08/11 02:26:57;;;;;;;3.60;2.70;;;16.60;42.00;;;;;;4972558;28;20969;-68
2021/08/11 02:29:46;;;;;;;4.23;2.90;;;16.60;41.60;;;;;;4972793;28;20495;-67
2021/08/11 02:32:39;;;;;;;3.80;3.07;;;16.60;42.00;;;;;;4953592;28;20417;-68
2021/08/11 02:35:14;;;;;;;5.83;3.10;;;16.60;42.00;;;;;;4973034;28;20484;-68
2021/08/11 02:37:51;;;;;;;7.50;2.60;;;16.50;41.50;;;;;;4972420;28;20468;-68
2021/08/11 02:40:52;;;;;;;5.20;2.80;;;16.40;41.50;;;;;;4972184;28;20490;-68
2021/08/11 02:43:27;;;;;;;3.10;2.23;;;16.30;41.80;;;;;;4931230;29;20468;-69
2021/08/11 02:46:01;;;;;;;4.50;2.80;;;16.30;42.20;;;;;;4967106;28;20425;-68
2021/08/11 02:48:29;;;;;;;5.17;3.10;;;16.30;41.80;;;;;;4972325;28;20837;-68
2021/08/11 02:50:55;;;;;;;4.10;2.87;;;16.20;42.10;;;;;;4972282;28;20773;-68
2021/08/11 02:53:23;;;;;;;4.50;3.00;;;16.10;42.50;;;;;;4971777;28;21022;-68
2021/08/11 02:55:50;;;;;;;5.50;3.03;;;16.10;42.80;;;;;;4971735;28;20945;-68
2021/08/11 02:58:17;;;;;;;4.17;2.37;;;16.10;42.70;;;;;;4972164;28;20416;-68
2021/08/11 03:00:43;;;;;;;3.07;2.50;;;16.10;43.10;;;;;;4972131;28;20791;-68
2021/08/11 03:03:09;;;;;;;4.17;2.60;;;16.10;42.70;;;;;;4972085;28;20417;-68
2021/08/11 03:05:35;;;;;;;5.90;2.97;;;16.20;42.70;;;;;;4972295;28;20431;-68
2021/08/11 03:08:01;;;;;;;3.70;2.53;;;16.20;42.50;;;;;;4972068;28;20762;-68
2021/08/11 03:10:27;;;;;;;3.27;2.60;;;16.20;42.50;;;;;;4971989;28;20428;-68
2021/08/11 03:12:53;;;;;;;3.50;2.67;;;16.20;42.30;;;;;;4971957;28;20515;-67
2021/08/11 03:15:19;;;;;;;4.73;2.80;;;16.20;43.20;;;;;;4972326;28;20472;-67
2021/08/11 03:17:45;;;;;;;2.80;2.10;;;16.30;42.80;;;;;;4971986;28;20443;-67
2021/08/11 03:20:12;;;;;;;7.40;3.40;;;16.30;42.50;;;;;;4971971;28;20503;-67
2021/08/11 03:22:38;;;;;;;3.07;2.23;;;16.30;41.80;;;;;;4971852;28;20782;-67
2021/08/11 03:25:04;;;;;;;3.73;2.90;;;16.20;41.70;;;;;;4971852;28;20451;-67
2021/08/11 03:27:30;;;;;;;5.07;2.23;;;16.20;41.70;;;;;;4972001;28;20185;-67
2021/08/11 03:29:55;;;;;;;3.97;2.40;;;16.10;41.60;;;;;;4971637;28;20432;-67
2021/08/11 03:32:21;;;;;;;3.60;3.07;;;16.10;42.30;;;;;;4971889;28;20677;-67
2021/08/11 03:34:46;;;;;;;5.77;2.60;;;16.10;42.50;;;;;;4971664;28;20470;-67
2021/08/11 03:37:16;;;;;;;4.93;3.57;;;16.10;42.50;;;;;;4971818;28;20212;-67
2021/08/11 03:39:42;;;;;;;4.00;2.60;;;16.10;42.70;;;;;;4971631;28;20184;-67
2021/08/11 03:42:07;;;;;;;3.10;2.80;;;16.10;42.60;;;;;;4971529;28;20497;-66
2021/08/11 03:44:33;;;;;;;3.10;2.23;;;16.10;42.80;;;;;;4971619;28;20452;-67
2021/08/11 03:46:58;;;;;;;3.53;3.10;;;16.10;42.50;;;;;;4971700;28;20269;-67
2021/08/11 03:49:24;;;;;;;4.53;2.80;;;16.10;42.60;;;;;;4971379;28;20200;-67
2021/08/11 03:51:50;;;;;;;3.70;3.23;;;16.10;42.60;;;;;;4971519;28;20196;-67
2021/08/11 03:54:15;;;;;;;3.83;2.20;;;16.10;43.00;;;;;;4971770;28;20205;-67
2021/08/11 03:56:41;;;;;;;3.87;2.77;;;16.00;43.00;;;;;;4970912;28;20270;-67
2021/08/11 03:59:07;;;;;;;6.20;3.23;;;16.00;43.30;;;;;;4971517;28;20239;-67
2021/08/11 04:01:33;;;;;;;4.37;2.23;;;15.90;42.90;;;;;;4971215;28;20471;-67
2021/08/11 04:03:59;;;;;;;6.53;2.67;;;15.90;43.30;;;;;;4971592;28;20213;-67
2021/08/11 04:06:24;;;;;;;3.63;2.43;;;15.90;43.10;;;;;;4973600;28;20926;-67
2021/08/11 04:08:50;;;;;;;3.43;2.80;;;15.90;43.10;;;;;;4975060;28;20200;-67
2021/08/11 04:11:15;;;;;;;3.77;2.80;;;15.90;43.20;;;;;;4974970;28;20519;-67
2021/08/11 04:13:41;;;;;;;4.83;2.70;;;15.90;43.10;;;;;;4974929;28;20217;-67
2021/08/11 04:16:06;;;;;;;4.50;3.37;;;15.90;43.10;;;;;;4975037;28;20177;-67
2021/08/11 04:18:32;;;;;;;3.23;2.57;;;15.80;42.70;;;;;;4975301;28;20215;-67
2021/08/11 04:20:58;;;;;;;3.97;3.60;;;15.80;43.50;;;;;;4974853;28;20662;-67
2021/08/11 04:23:23;;;;;;;5.07;3.43;;;15.80;43.40;;;;;;4974874;28;20679;-66
2021/08/11 04:25:49;;;;;;;3.67;3.03;;;15.80;43.40;;;;;;4974670;28;20189;-67
2021/08/11 04:28:14;;;;;;;3.43;2.67;;;15.80;43.30;;;;;;4974712;28;20188;-66
2021/08/11 04:30:40;;;;;;;4.00;3.17;;;15.80;43.40;;;;;;4974627;28;20184;-66
2021/08/11 04:33:07;;;;;;;3.20;2.53;;;15.90;43.60;;;;;;4973341;28;20204;-66
2021/08/11 04:35:32;;;;;;;5.30;3.23;;;15.90;43.90;;;;;;4974713;28;20478;-66
2021/08/11 04:37:58;;;;;;;2.87;2.60;;;15.90;43.70;;;;;;4974809;28;20816;-66
2021/08/11 04:40:23;;;;;;;5.50;3.17;;;15.90;43.70;;;;;;4974511;28;20536;-68
2021/08/11 04:42:49;;;;;;;3.13;2.83;;;16.00;43.60;;;;;;4974660;28;20232;-67
2021/08/11 04:45:15;;;;;;;3.37;2.67;;;16.00;43.40;;;;;;4974391;28;20567;-68
2021/08/11 04:47:40;;;;;;;2.87;2.57;;;16.00;43.30;;;;;;4974401;28;20181;-68
2021/08/11 04:50:07;;;;;;;7.73;3.80;;;16.00;43.20;;;;;;4974418;28;20655;-68
2021/08/11 04:52:32;;;;;;;3.83;2.50;;;16.10;43.30;;;;;;4974487;28;20182;-68
2021/08/11 04:54:58;;;;;;;4.63;2.57;;;16.10;43.20;;;;;;4974184;28;20473;-68
2021/08/11 04:57:23;;;;;;;2.80;2.50;;;16.10;43.30;;;;;;4973057;28;20255;-68
2021/08/11 04:59:49;;;;;;;3.83;3.30;;;16.20;43.60;;;;;;4974196;28;20205;-68
2021/08/11 05:02:14;;;;;;;3.40;2.30;;;16.20;43.50;;;;;;4974435;28;20754;-68
2021/08/11 05:04:40;;;;;;;3.87;3.47;;;16.30;43.70;;;;;;4974275;28;20564;-68
2021/08/11 05:07:06;;;;;;;5.03;3.60;;;16.30;43.20;;;;;;4972737;28;20212;-68
2021/08/11 05:09:33;;;;;;;4.50;3.80;;;16.40;42.70;;;;;;4974598;28;20181;-68
2021/08/11 05:11:58;;;;;;;3.90;2.93;;;16.50;42.30;;;;;;4974186;28;20420;-68
2021/08/11 05:14:24;;;;;;;6.23;3.73;;;16.50;42.00;;;;;;4973599;28;20472;-69
2021/08/11 05:16:50;;;;;;;6.87;3.80;;;16.60;42.00;;;;;;4971909;28;20177;-69
2021/08/11 05:19:15;;;;;;;2.80;2.37;;;16.60;42.00;;;;;;4972570;28;20178;-69
2021/08/11 05:21:42;;;;;;;3.80;3.40;;;16.60;42.00;;;;;;4972563;28;20213;-69
2021/08/11 05:24:08;;;;;;;6.30;4.23;;;16.70;42.10;;;;;;4974146;28;20216;-70
2021/08/11 05:26:33;;;;;;;4.23;3.83;;;16.70;42.00;;;;;;4972443;28;20436;-69
2021/08/11 05:28:59;;;;;;;4.07;3.67;;;16.80;41.60;;;;;;4973474;28;20922;-69
2021/08/11 05:31:25;;;;;;;5.73;4.00;;;17.00;42.40;;;;;;4972910;28;20209;-69
2021/08/11 05:33:51;;;;;;;6.10;4.70;;;;;;;;;;4976011;28;20215;-69
2021/08/11 05:36:16;;;;;;;7.20;5.23;;;17.80;40.00;;;;;;4975636;28;20188;-69
2021/08/11 05:38:42;;;;;;;4.80;4.13;;;18.60;37.20;;;;;;4956929;28;20447;-69
2021/08/11 05:41:07;;;;;;;4.17;3.43;;;19.20;33.90;;;;;;4956307;28;20189;-68
2021/08/11 05:43:34;;;;;;;5.03;4.53;;;19.30;32.60;;;;;;4966403;28;20524;-72
2021/08/11 05:46:00;;;;;;;4.03;3.63;;;19.40;32.00;;;;;;4955774;28;20173;-69
2021/08/11 05:48:25;;;;;;;5.20;4.00;;;19.70;31.40;;;;;;4956283;28;20420;-69
2021/08/11 05:50:51;;;;;;;4.73;3.77;;;19.80;31.10;;;;;;4954355;28;20409;-69
2021/08/11 05:53:16;;;;;;;6.20;4.87;;;20.00;30.50;;;;;;4954921;28;20275;-68
2021/08/11 05:55:42;;;;;;;4.87;4.37;;;20.10;30.40;;;;;;4955701;28;20691;-68
2021/08/11 05:58:11;;;;;;;8.40;4.87;;;20.30;30.50;;;;;;4955201;28;20713;-68
2021/08/11 06:00:38;;;;;;;6.20;4.50;;;20.40;30.00;;;;;;4955000;28;20266;-69
2021/08/11 06:03:03;;;;;;;7.00;4.50;;;20.60;30.50;;;;;;4955259;28;20497;-69
2021/08/11 06:05:29;;;;;;;6.23;3.93;;;20.70;29.60;;;;;;4955471;28;20460;-69
2021/08/11 06:07:55;;;;;;;3.93;3.53;;;20.80;30.00;;;;;;4956290;28;20186;-70
2021/08/11 06:10:20;;;;;;;4.53;4.10;;;20.80;29.30;;;;;;4955326;28;20193;-69
2021/08/11 06:12:47;;;;;;;8.70;5.10;;;21.00;29.30;;;;;;4953895;29;20188;-69
2021/08/11 06:15:13;;;;;;;6.70;4.67;;;21.10;28.70;;;;;;4954548;28;20300;-69
2021/08/11 06:17:43;;;;;;;7.27;5.77;;;21.20;29.00;;;;;;4954985;28;20903;-69
2021/08/11 06:20:10;;;;;;;5.27;4.83;;;21.30;28.60;;;;;;4954859;28;20480;-69
2021/08/11 06:22:35;;;;;;;8.30;5.10;;;21.40;29.10;;;;;;4954668;28;20492;-69
2021/08/11 06:25:01;;;;;;;5.47;4.40;;;21.50;27.50;;;;;;4954035;28;20465;-69
2021/08/11 06:27:27;;;;;;;10.10;4.47;;;21.60;27.20;;;;;;4954280;28;20225;-70
2021/08/11 06:29:53;;;;;;;11.53;5.00;;;21.70;26.80;;;;;;4954146;28;20204;-70
2021/08/11 06:32:18;;;;;;;4.20;3.90;;;21.80;26.40;;;;;;4955172;28;20417;-70
2021/08/11 06:34:44;;;;;;;5.53;4.27;;;21.90;26.50;;;;;;4954365;28;20221;-70
2021/08/11 06:37:10;;;;;;;4.40;4.00;;;21.90;26.50;;;;;;4955117;28;20174;-70
2021/08/11 06:39:35;;;;;;;6.00;4.03;;;21.90;26.50;;;;;;4955185;28;20185;-70
2021/08/11 06:42:01;;;;;;;4.43;4.03;;;22.00;26.20;;;;;;4956152;28;20206;-71
2021/08/11 06:44:26;;;;;;;6.80;4.70;;;22.10;25.90;;;;;;4956356;28;20514;-70
2021/08/11 06:46:52;;;;;;;4.73;4.20;;;22.30;25.80;;;;;;4955246;28;20178;-70
2021/08/11 06:49:18;;;;;;;5.23;3.53;;;22.30;26.00;;;;;;4954431;28;20581;-70
2021/08/11 06:51:44;;;;;;;3.67;3.37;;;22.50;26.90;;;;;;4955257;28;20446;-70
2021/08/11 06:54:10;;;;;;;5.20;4.70;;;22.60;26.20;;;;;;4955002;28;20611;-70
2021/08/11 06:56:36;;;;;;;8.97;4.37;;;22.70;25.40;;;;;;4955509;28;20662;-70
2021/08/11 06:59:01;;;;;;;5.17;4.33;;;22.60;26.50;;;;;;4952871;28;20449;-69
2021/08/11 07:01:27;;;;;;;4.37;3.97;;;22.80;26.10;;;;;;4952902;28;20671;-70
2021/08/11 07:03:52;;;;;;;6.53;5.03;;;22.90;25.30;;;;;;4952891;28;20198;-70
2021/08/11 07:06:18;;;;;;;5.27;4.80;;;22.90;25.20;;;;;;4951499;29;20188;-69
2021/08/11 07:08:43;;;;;;;5.17;4.67;;;22.80;25.00;;;;;;4952630;28;20178;-69
2021/08/11 07:11:09;;;;;;;7.27;5.73;;;23.00;25.00;;;;;;4952940;28;20640;-70
2021/08/11 07:13:35;;;;;;;5.30;4.37;;;23.00;23.90;;;;;;4952655;28;20194;-69
2021/08/11 07:16:00;;;;;;;12.83;5.33;;;22.90;24.30;;;;;;4960876;28;20192;-69
2021/08/11 07:18:26;;;;;;;4.47;4.10;;;22.90;25.10;;;;;;4971749;28;20248;-69
2021/08/11 07:20:51;;;;;;;4.53;4.03;;;23.20;26.80;;;;;;4970104;28;20247;-69
2021/08/11 07:23:17;;;;;;;5.33;4.80;;;23.50;24.20;;;;;;4971603;28;20232;-69
2021/08/11 07:25:42;;;;;;;5.37;4.53;;;23.70;24.10;;;;;;4971923;28;20185;-69
2021/08/11 07:28:08;;;;;;;4.60;4.20;;;24.00;23.70;;;;;;4971756;28;20185;-70
2021/08/11 07:30:34;;;;;;;5.17;4.67;;;24.20;24.40;;;;;;4972048;28;20177;-69
2021/08/11 07:33:00;;;;;;;8.77;5.13;;;24.30;22.80;;;;;;4971181;28;20965;-73
2021/08/11 07:35:26;;;;;;;5.03;4.43;;;24.40;22.60;;;;;;4971756;28;20667;-70
2021/08/11 07:37:53;;;;;;;5.50;5.10;;;24.50;23.50;;;;;;4971625;28;20187;-69
2021/08/11 07:40:21;;;;;;;5.80;5.23;;;24.60;22.90;;;;;;4972108;28;20181;-69
2021/08/11 07:42:47;;;;;;;6.07;5.60;;;24.60;22.40;;;;;;4974117;28;20500;-69
2021/08/11 07:45:14;;;;;;;5.73;5.23;;;24.60;22.20;;;;;;4975395;28;20439;-69
2021/08/11 07:47:42;;;;;;;6.20;5.63;;;24.80;22.70;;;;;;4975358;28;20910;-69
2021/08/11 07:50:08;;;;;;;11.57;5.73;;;25.00;21.60;;;;;;4975148;28;20439;-69
2021/08/11 07:52:34;;;;;;;6.07;5.47;;;24.90;21.30;;;;;;4975302;28;20524;-69
2021/08/11 07:55:00;;;;;;;6.03;5.53;;;24.90;21.50;;;;;;4974144;28;20563;-69
2021/08/11 07:57:25;;;;;;;5.77;5.33;;;25.00;21.50;;;;;;4975610;28;20409;-69
2021/08/11 07:59:51;;;;;;;9.20;5.43;;;25.10;21.60;;;;;;4975333;28;20209;-69
2021/08/11 08:02:16;;;;;;;6.30;5.80;;;25.10;22.40;;;;;;4974033;28;20177;-69
2021/08/11 08:04:42;;;;;;;6.27;5.77;;;25.20;21.30;;;;;;4975188;28;20197;-69
2021/08/11 08:07:09;;;;;;;7.10;6.50;;;25.30;20.60;;;;;;4974126;28;20192;-69
2021/08/11 08:09:34;;;;;;;12.80;7.77;;;25.50;21.20;;;;;;4976789;28;20269;-69
2021/08/11 08:12:00;;;;;;;6.73;6.33;;;25.70;19.40;;;;;;4975420;28;20860;-69
2021/08/11 08:14:25;;;;;;;8.30;7.60;;;25.60;20.30;;;;;;4974052;28;20702;-68
2021/08/11 08:16:51;;;;;;;7.00;6.60;;;25.60;20.30;;;;;;4974077;28;20256;-68
2021/08/11 08:19:17;;;;;;;8.07;7.57;;;25.80;20.40;;;;;;4974849;28;20196;-68
2021/08/11 08:21:43;;;;;;;7.77;7.23;;;25.90;20.40;;;;;;4975543;28;20173;-69
2021/08/11 08:24:09;;;;;;;9.10;8.50;;;26.40;20.00;;;;;;4975051;28;20263;-69
2021/08/11 08:26:34;;;;;;;9.47;8.97;;;27.30;18.60;;;;;;4974939;28;20187;-69
2021/08/11 08:29:00;;;;;;;9.33;8.73;;;28.20;16.20;;;;;;4974508;28;20185;-69
2021/08/11 08:31:25;;;;;;;9.63;9.03;;;28.90;16.30;;;;;;4974662;28;20232;-69
2021/08/11 08:33:51;;;;;;;10.03;9.37;;;29.50;16.60;;;;;;4974369;28;20252;-69
2021/08/11 08:36:16;;;;;;;10.90;10.30;;;29.50;15.20;;;;;;4975683;28;20261;-70
2021/08/11 08:38:42;;;;;;;9.03;8.53;;;29.00;14.30;;;;;;4973344;28;20657;-69
2021/08/11 08:41:10;;;;;;;10.20;9.70;;;28.40;17.00;;;;;;4974599;28;20177;-69
2021/08/11 08:43:36;;;;;;;9.57;9.03;;;28.00;17.10;;;;;;4974587;28;20287;-70
2021/08/11 08:46:02;;;;;;;10.00;9.40;;;27.80;17.80;;;;;;4974522;28;20503;-70
2021/08/11 08:48:28;;;;;;;9.30;8.90;;;27.70;17.10;;;;;;4975003;28;20184;-70
2021/08/11 08:50:56;;;;;;;9.83;9.17;;;27.40;16.60;;;;;;4974425;28;20898;-69
2021/08/11 08:53:22;;;;;;;11.43;10.50;;;27.10;16.70;;;;;;4974526;28;20791;-70
2021/08/11 08:55:50;;;;;;;9.70;9.20;;;26.90;16.50;;;;;;4974310;28;20467;-69
2021/08/11 08:58:17;;;;;;;9.50;8.90;;;26.70;17.50;;;;;;4974427;28;20416;-70
2021/08/11 09:00:43;;;;;;;8.53;8.03;;;26.60;19.00;;;;;;4974328;28;20974;-69
2021/08/11 09:03:08;;;;;;;8.50;7.97;;;26.50;19.50;;;;;;4973894;28;20420;-70
2021/08/11 09:05:34;;;;;;;8.90;8.30;;;26.20;19.10;;;;;;4974243;28;20190;-70
2021/08/11 09:07:59;;;;;;;8.43;7.83;;;26.00;20.50;;;;;;4974486;28;20666;-70
2021/08/11 09:10:30;;;;;;;8.07;7.40;;;26.00;19.90;;;;;;4974075;28;20610;-69
2021/08/11 09:13:06;;;;;;;8.63;7.83;;;26.30;20.60;;;;;;4974031;28;20182;-70
2021/08/11 09:15:36;;;;;;;8.77;8.27;;;26.60;19.20;;;;;;4973792;28;20985;-69
2021/08/11 09:18:19;;;;;;;9.50;8.90;;;26.70;18.70;;;;;;4974179;28;20401;-70
2021/08/11 09:20:47;;;;;;;8.57;8.17;;;26.90;18.10;;;;;;4974065;28;20848;-70
2021/08/11 09:23:15;;;;;;;9.07;8.40;;;26.70;18.00;;;;;;4974378;28;20822;-70
2021/08/11 09:26:04;;;;;;;9.00;8.30;;;26.80;17.90;;;;;;4974067;28;20445;-70
2021/08/11 09:28:32;;;;;;;10.17;9.47;;;26.90;17.70;;;;;;4974235;28;20412;-72
2021/08/11 09:30:58;;;;;;;8.97;8.57;;;26.90;16.90;;;;;;4973927;28;20412;-70
2021/08/11 09:33:25;;;;;;;10.13;9.10;;;26.80;17.40;;;;;;4973522;28;20458;-70
2021/08/11 09:35:52;;;;;;;8.83;8.40;;;26.90;18.20;;;;;;4973698;28;20519;-69
2021/08/11 09:38:18;;;;;;;9.80;9.20;;;27.00;18.60;;;;;;4972433;28;20417;-70
2021/08/11 09:40:44;;;;;;;9.80;9.00;;;27.20;18.30;;;;;;4973333;28;20968;-70
2021/08/11 09:43:12;;;;;;;9.93;9.43;;;27.30;18.10;;;;;;4973597;28;20499;-70
2021/08/11 09:45:56;;;;;;;14.53;10.17;;;27.30;16.70;;;;;;4973699;28;20418;-70
2021/08/11 09:48:42;;;;;;;10.57;10.07;;;27.30;16.00;;;;;;4972272;28;20427;-70
2021/08/11 09:51:10;;;;;;;9.30;8.80;;;27.20;16.60;;;;;;4973396;28;20424;-70
2021/08/11 09:53:38;;;;;;;11.43;10.47;;;27.20;17.30;;;;;;4971709;28;20535;-70
2021/08/11 09:56:07;;;;;;;10.23;9.73;;;27.20;16.30;;;;;;4973020;28;20424;-70
2021/08/11 09:58:39;;;;;;;10.63;10.13;;;27.10;16.60;;;;;;4973077;28;20434;-70
2021/08/11 10:01:14;;;;;;;10.13;9.53;;;27.00;17.60;;;;;;4972823;28;20459;-69
2021/08/11 10:03:58;;;;;;;10.60;9.77;;;27.20;19.10;;;;;;4972317;28;20448;-70
2021/08/11 10:06:27;;;;;;;10.70;10.10;;;27.30;17.40;;;;;;4971721;28;20915;-70
2021/08/11 10:08:54;;;;;;;11.40;10.70;;;27.50;17.50;;;;;;4972679;28;20508;-70
2021/08/11 10:11:39;;;;;;;11.07;10.57;;;27.60;16.60;;;;;;4973017;28;20421;-70
2021/08/11 10:14:09;;;;;;;11.57;10.93;;;27.80;15.90;;;;;;4972747;28;20468;-70
2021/08/11 10:16:35;;;;;;;12.27;11.67;;;28.00;16.70;;;;;;4972784;28;20416;-69
2021/08/11 10:19:06;;;;;;;14.50;13.17;;;28.00;15.40;;;;;;4972446;28;20428;-70
2021/08/11 10:21:34;;;;;;;12.50;11.90;;;28.10;14.20;;;;;;4971616;28;20432;-70
2021/08/11 10:24:01;;;;;;;12.50;11.80;;;28.00;13.80;;;;;;4972642;28;20449;-70
2021/08/11 10:26:28;;;;;;;13.40;12.60;;;28.10;14.10;;;;;;4973167;28;20952;-70
2021/08/11 10:28:54;;;;;;;13.43;12.67;;;28.10;14.50;;;;;;4972408;28;20865;-69
2021/08/11 10:31:21;;;;;;;13.17;12.37;;;28.10;14.40;;;;;;4972488;28;20425;-70
2021/08/11 10:33:50;;;;;;;13.20;12.60;;;28.00;15.20;;;;;;4972128;28;20551;-70
2021/08/11 10:36:16;;;;;;;13.40;12.80;;;27.90;13.50;;;;;;4972432;28;20471;-70
2021/08/11 10:38:46;;;;;;;13.03;12.37;;;27.90;14.80;;;;;;4972846;28;20424;-70
2021/08/11 10:41:13;;;;;;;14.70;13.80;;;28.00;14.30;;;;;;4972458;28;20417;-70
2021/08/11 10:43:40;;;;;;;13.97;13.47;;;28.10;12.60;;;;;;4972104;28;20436;-69
2021/08/11 10:46:10;;;;;;;14.07;13.43;;;28.20;11.80;;;;;;4972213;28;20424;-70
2021/08/11 10:48:36;;;;;;;15.10;14.23;;;28.30;13.10;;;;;;4972167;28;20503;-70
2021/08/11 10:51:01;;;;;;;14.30;13.60;;;28.30;12.70;;;;;;4971991;28;20460;-70
2021/08/11 10:53:27;;;;;;;11.53;10.93;;;28.40;13.30;;;;;;4972083;28;20193;-70
2021/08/11 10:55:54;;;;;;;13.20;12.60;;;28.50;15.80;;;;;;4972258;28;20201;-69
2021/08/11 10:58:43;;;;;;;13.87;13.17;;;28.50;13.30;;;;;;4972525;28;20187;-69
2021/08/11 11:01:31;;;;;;;15.40;14.63;;;28.60;13.40;;;;;;4972015;28;20416;-70
2021/08/11 11:03:57;;;;;;;15.53;14.73;;;28.40;10.50;;;;;;4970746;28;20437;-70
2021/08/11 11:06:22;;;;;;;16.10;15.00;;;28.20;11.20;;;;;;4970854;28;20423;-70
2021/08/11 11:08:48;;;;;;;12.93;12.33;;;28.10;12.60;;;;;;4971812;28;20487;-70
2021/08/11 11:11:35;;;;;;;13.27;12.57;;;28.10;13.20;;;;;;4972185;28;20808;-69
2021/08/11 11:14:01;;;;;;;14.73;13.73;;;28.20;13.70;;;;;;4972145;28;20833;-68
2021/08/11 11:17:01;;;;;;;14.50;13.73;;;28.20;13.50;;;;;;4974532;28;20413;-68
2021/08/11 11:19:26;;;;;;;15.00;14.30;;;28.40;12.80;;;;;;4943798;28;20428;-68
2021/08/11 11:21:52;;;;;;;14.23;13.43;;;28.40;13.20;;;;;;4976025;28;20941;-68
2021/08/11 11:24:51;;;;;;;15.57;14.67;;;28.60;12.90;;;;;;4975841;28;20200;-70
2021/08/11 11:27:39;;;;;;;16.63;15.60;;;28.70;11.80;;;;;;4976185;28;20189;-68
2021/08/11 11:30:06;;;;;;;17.03;15.60;;;28.60;11.30;;;;;;4975735;28;20904;-68
2021/08/11 11:32:32;;;;;;;16.03;14.83;;;28.50;12.80;;;;;;4975865;28;20417;-68
2021/08/11 11:35:20;;;;;;;15.40;14.70;;;28.60;12.90;;;;;;4975701;28;20543;-68
2021/08/11 11:38:09;;;;;;;16.20;15.30;;;28.70;12.90;;;;;;4976099;28;20174;-68
2021/08/11 11:40:54;;;;;;;16.60;15.80;;;28.90;12.00;;;;;;4975257;28;20914;-69
2021/08/11 11:43:25;;;;;;;16.40;15.60;;;29.00;11.10;;;;;;4975618;28;20444;-69
2021/08/11 11:45:51;;;;;;;16.87;16.07;;;29.10;11.50;;;;;;4975537;28;20827;-68
2021/08/11 11:48:16;;;;;;;16.43;15.53;;;29.00;11.40;;;;;;4975502;28;20431;-69
2021/08/11 11:50:49;;;;;;;17.20;16.40;;;28.90;12.00;;;;;;4975247;28;20424;-67
2021/08/11 11:53:20;;;;;;;17.07;16.23;;;28.90;10.70;;;;;;4975409;28;20186;-68
2021/08/11 11:55:46;;;;;;;17.77;16.77;;;28.60;10.70;;;;;;4973958;28;20476;-68
2021/08/11 11:58:17;;;;;;;15.93;15.13;;;28.30;12.00;;;;;;4975354;28;20413;-68
2021/08/11 12:00:45;;;;;;;19.53;15.90;;;28.40;13.60;;;;;;4975134;28;20416;-69
2021/08/11 12:03:11;;;;;;;16.53;15.63;;;28.50;12.80;;;;;;4975302;28;20413;-69
2021/08/11 12:05:52;;;;;;;17.37;16.57;;;28.70;12.90;;;;;;4975183;28;20498;-68
2021/08/11 12:08:22;;;;;;;18.23;17.00;;;28.90;11.30;;;;;;4975323;28;20929;-68
2021/08/11 12:10:49;;;;;;;15.87;15.17;;;28.90;11.40;;;;;;4974896;28;20421;-69
2021/08/11 12:13:16;;;;;;;19.03;17.63;;;28.90;12.70;;;;;;4973679;28;20455;-68
2021/08/11 12:15:48;;;;;;;18.33;17.37;;;29.00;11.40;;;;;;4974760;28;20464;-69
2021/08/11 12:18:18;;;;;;;18.17;17.07;;;28.90;10.50;;;;;;4975483;28;20412;-68
2021/08/11 12:20:47;;;;;;;18.00;17.03;;;28.80;11.20;;;;;;4974983;28;20421;-68
2021/08/11 12:23:29;;;;;;;15.87;15.13;;;28.90;11.80;;;;;;4975233;28;20429;-68
2021/08/11 12:26:01;;;;;;;16.17;15.47;;;28.90;13.00;;;;;;4974488;28;20648;-68
2021/08/11 12:28:37;;;;;;;17.70;16.57;;;29.00;12.20;;;;;;4973503;28;20591;-68
2021/08/11 12:31:06;;;;;;;16.50;15.70;;;29.10;11.70;;;;;;4974482;28;20831;-68
2021/08/11 12:33:36;;;;;;;17.27;16.37;;;29.30;11.20;;;;;;4974334;28;20468;-68
2021/08/11 12:36:17;;;;;;;18.63;17.67;;;29.40;11.60;;;;;;4974591;28;20421;-68
2021/08/11 12:38:55;;;;;;;18.20;17.20;;;29.50;9.90;;;;;;4974527;28;20874;-67
2021/08/11 12:41:23;;;;;;;18.40;17.50;;;29.20;10.50;;;;;;4974939;28;20883;-67
2021/08/11 12:43:54;;;;;;;18.30;17.40;;;29.10;10.20;;;;;;4974252;28;21013;-69
2021/08/11 12:46:44;;;;;;;18.20;17.30;;;29.20;10.60;;;;;;4974747;28;20487;-68
2021/08/11 12:49:23;;;;;;;17.93;16.93;;;29.40;11.50;;;;;;4974130;28;20480;-68